Hoover, South Dakota
Current Conditions -  °F | °C
As of 9:55 PM on Saturday 22 Nov 2014 (Local Time) from KSPF Reporting Station
Light Rain Light Rain  
Wind Chill: 25°   Ceiling: Unl
Heat Index: 36°   Visibility: 10mi
Dew Point: 32°   Wind: 18mph
Humidity: 87%   Direction: 290°WNW
Pressure: 29.54"   Gusts: 29mph
Location:  44.9094°N, 103.193°W
Report Text: KSPF 230455Z AUTO 29016G25KT 10SM -RA FEW020 SCT026 02/00 A2954 RMK AO2 P0008
Loading
Personal Weather Stations






























Interactive Weather Map New forecast layout! Learn more

10-Day Weather Forecast

Advertisements
Track Severe Weather on mobile